Time;durP1;ratioP1;P1;durP2;ratioP2;P2;SDS_P1;SDS_P2;PMS_P1;PMS_P2;Temp;Humidity;BMP_temperature;BMP_pressure;BME280_temperature;BME280_humidity;BME280_pressure;Samples;Min_cycle;Max_cycle;Signal;HPM_P1;HPM_P2
2023/03/06 00:00:20;;;;;;;114.40;55.00;;;;;;;-1.51;70.25;100066.33;109508;1256;64645;-84
2023/03/06 00:04:27;;;;;;;120.70;55.20;;;;;;;-1.49;70.01;100065.25;105989;1290;612456;-83
2023/03/06 00:06:57;;;;;;;116.70;54.20;;;;;;;-1.52;70.08;100062.73;108843;1269;61440;-83
2023/03/06 00:09:25;;;;;;;112.50;52.50;;;;;;;-1.51;70.35;100065.46;108742;1266;60255;-83
2023/03/06 00:11:55;;;;;;;115.50;52.40;;;;;;;-1.48;70.46;100062.65;108784;1266;71956;-85
2023/03/06 00:14:22;;;;;;;121.70;52.90;;;;;;;-1.43;70.39;100062.73;109473;1253;62542;-83
2023/03/06 00:16:57;;;;;;;118.20;54.00;;;;;;;-1.37;70.70;100063.65;109221;1257;579866;-81
2023/03/06 00:19:25;;;;;;;115.40;50.70;;;;;;;-1.32;70.56;100066.45;109797;1251;59320;-83
2023/03/06 00:22:02;;;;;;;126.00;55.60;;;;;;;-1.27;70.28;100063.60;109646;1251;60123;-82
2023/03/06 00:24:29;;;;;;;108.20;51.80;;;;;;;-1.22;70.04;100063.35;109706;1251;72004;-82
2023/03/06 00:26:56;;;;;;;110.90;52.60;;;;;;;-1.21;69.67;100063.33;106888;1255;64937;-84
2023/03/06 00:29:23;;;;;;;114.00;53.50;;;;;;;-1.23;69.47;100061.80;106694;1255;72350;-82
2023/03/06 00:31:52;;;;;;;108.80;48.80;;;;;;;-1.27;69.49;100060.34;106694;1255;59535;-83
2023/03/06 00:34:19;;;;;;;105.00;49.70;;;;;;;-1.33;69.21;100060.48;106252;1256;60456;-85
2023/03/06 00:36:47;;;;;;;100.70;44.80;;;;;;;-1.41;69.12;100059.60;107082;1251;73744;-81
2023/03/06 00:39:16;;;;;;;96.70;46.40;;;;;;;-1.47;69.22;100060.75;107800;1254;63804;-85
2023/03/06 00:41:44;;;;;;;92.00;43.20;;;;;;;-1.50;69.33;100059.09;106452;1251;73666;-82
2023/03/06 00:44:13;;;;;;;93.40;44.60;;;;;;;-1.51;69.73;100062.05;107917;1256;60828;-83
2023/03/06 00:46:40;;;;;;;95.90;42.80;;;;;;;-1.50;70.00;100057.89;106255;1253;61264;-83
2023/03/06 00:49:07;;;;;;;80.80;41.20;;;;;;;-1.48;70.05;100058.73;106210;1254;73980;-85
2023/03/06 00:51:36;;;;;;;80.30;40.30;;;;;;;-1.46;70.23;100054.58;106063;1256;64856;-86
2023/03/06 00:54:04;;;;;;;81.70;38.10;;;;;;;-1.44;69.94;100053.34;105781;1260;74782;-83
2023/03/06 00:56:35;;;;;;;75.60;39.80;;;;;;;-1.42;69.84;100049.17;106057;1255;60772;-85
2023/03/06 00:59:02;;;;;;;48.30;26.60;;;;;;;-1.42;69.41;100048.48;106144;1251;60985;-81
2023/03/06 01:01:29;;;;;;;58.10;29.40;;;;;;;-1.44;69.26;100046.64;106090;1258;73114;-84
2023/03/06 01:03:56;;;;;;;52.70;27.00;;;;;;;-1.49;69.16;100047.92;106279;1256;64906;-83
2023/03/06 01:06:25;;;;;;;69.60;34.60;;;;;;;-1.52;69.03;100049.36;106185;1251;73830;-83
2023/03/06 01:08:53;;;;;;;59.30;32.50;;;;;;;-1.53;69.39;100048.52;105954;1256;61704;-85
2023/03/06 01:11:20;;;;;;;67.50;34.90;;;;;;;-1.54;69.30;100046.66;105972;1251;60432;-87
2023/03/06 01:13:47;;;;;;;49.90;24.60;;;;;;;-1.56;69.42;100047.58;105981;1256;73985;-84
2023/03/06 01:16:15;;;;;;;52.30;26.20;;;;;;;-1.59;69.05;100047.63;105997;1256;64954;-85
2023/03/06 01:18:42;;;;;;;57.10;29.50;;;;;;;-1.61;69.07;100053.30;106577;1257;73628;-83
2023/03/06 01:21:09;;;;;;;47.10;25.60;;;;;;;-1.62;69.28;100055.05;106370;1259;62160;-83
2023/03/06 01:23:38;;;;;;;52.50;25.70;;;;;;;-1.61;69.47;100055.20;105963;1251;60731;-84
2023/03/06 01:26:05;;;;;;;59.30;28.30;;;;;;;-1.59;69.55;100053.61;105973;1266;71995;-84
2023/03/06 01:28:34;;;;;;;59.30;29.70;;;;;;;-1.56;69.57;100050.30;106026;1255;64666;-84
2023/03/06 01:31:03;;;;;;;66.10;31.90;;;;;;;-1.54;69.55;100050.59;106743;1258;72782;-83
2023/03/06 01:33:32;;;;;;;73.50;33.80;;;;;;;-1.51;69.41;100056.91;106715;1256;59620;-83
2023/03/06 01:35:59;;;;;;;61.60;29.80;;;;;;;-1.50;69.20;100053.10;106662;1251;60284;-82
2023/03/06 01:38:26;;;;;;;62.90;33.30;;;;;;;-1.48;69.25;100050.48;106408;1256;74648;-83
2023/03/06 01:40:52;;;;;;;64.20;32.50;;;;;;;-1.45;68.94;100049.23;107367;1251;63066;-84
2023/03/06 01:43:23;;;;;;;58.00;29.80;;;;;;;-1.47;68.85;100048.06;107267;1252;72508;-85
2023/03/06 01:45:50;;;;;;;62.90;30.10;;;;;;;-1.51;68.62;100044.21;106291;1257;60497;-82
2023/03/06 01:48:18;;;;;;;57.50;30.20;;;;;;;-1.54;68.77;100044.61;106512;1256;60277;-83
2023/03/06 01:50:46;;;;;;;55.80;28.30;;;;;;;-1.58;68.75;100044.34;106051;1251;73871;-84
2023/03/06 01:53:15;;;;;;;46.50;24.00;;;;;;;-1.61;68.86;100041.66;107654;1256;63771;-84
2023/03/06 01:55:43;;;;;;;58.40;28.40;;;;;;;-1.62;68.75;100040.66;106437;1256;73895;-83
2023/03/06 01:58:12;;;;;;;46.40;23.90;;;;;;;-1.64;68.89;100042.58;106109;1251;61962;-84
2023/03/06 02:00:39;;;;;;;42.00;21.20;;;;;;;-1.64;69.10;100041.38;106031;1256;61340;-83
2023/03/06 02:03:08;;;;;;;46.70;24.60;;;;;;;-1.62;69.55;100043.73;107677;1252;74041;-81
2023/03/06 02:05:36;;;;;;;40.30;22.20;;;;;;;-1.60;69.32;100045.23;106267;1256;65032;-83
2023/03/06 02:08:22;;;;;;;45.00;25.20;;;;;;;-1.57;69.65;100045.02;105901;1256;73173;-83
2023/03/06 02:10:58;;;;;;;49.90;28.50;;;;;;;-1.54;69.40;100043.77;106065;1256;59747;-83
2023/03/06 02:13:25;;;;;;;57.60;30.20;;;;;;;-1.54;69.46;100045.80;107020;1256;61265;-84
2023/03/06 02:15:51;;;;;;;62.40;35.50;;;;;;;-1.54;69.17;100046.67;106325;1254;73111;-84
2023/03/06 02:18:20;;;;;;;57.00;30.60;;;;;;;-1.56;69.29;100047.39;106025;1256;64758;-83
2023/03/06 02:20:52;;;;;;;38.40;24.30;;;;;;;-1.59;69.07;100044.35;105929;1256;71577;-83
2023/03/06 02:23:37;;;;;;;67.50;38.20;;;;;;;-1.62;69.10;100046.31;105984;1255;60036;-84
2023/03/06 02:26:04;;;;;;;79.70;40.60;;;;;;;-1.66;69.17;100046.39;106422;1255;60436;-85
2023/03/06 02:28:32;;;;;;;77.40;44.30;;;;;;;-1.66;69.25;100048.79;105903;1257;73203;-83
2023/03/06 02:30:59;;;;;;;140.40;73.40;;;;;;;-1.67;68.99;100051.88;105909;1251;64546;-84
2023/03/06 02:33:27;;;;;;;102.80;53.90;;;;;;;-1.67;69.20;100049.65;106026;1257;73691;-86
2023/03/06 02:36:04;;;;;;;125.90;68.80;;;;;;;-1.63;69.48;100050.80;106004;1251;59685;-83
2023/03/06 02:38:36;;;;;;;92.40;48.00;;;;;;;-1.62;69.48;100050.27;105815;1251;61804;-84
2023/03/06 02:41:05;;;;;;;63.20;35.00;;;;;;;-1.61;69.46;100047.48;106086;1256;72638;-84
2023/03/06 02:43:35;;;;;;;46.50;26.50;;;;;;;-1.58;69.62;100046.23;105944;1257;65023;-84
2023/03/06 02:46:04;;;;;;;35.20;21.80;;;;;;;-1.56;69.21;100046.35;105982;1252;73448;-82
2023/03/06 02:48:34;;;;;;;34.20;19.40;;;;;;;-1.55;69.37;100046.86;106062;1256;60580;-84
2023/03/06 02:51:05;;;;;;;31.80;17.70;;;;;;;-1.56;69.19;100049.45;106121;1251;61338;-83
2023/03/06 02:53:31;;;;;;;32.00;17.90;;;;;;;-1.58;69.25;100049.67;105998;1252;73974;-83
2023/03/06 02:55:59;;;;;;;31.00;17.60;;;;;;;-1.61;68.88;100050.06;106023;1256;64582;-83
2023/03/06 02:58:26;;;;;;;29.60;17.30;;;;;;;-1.66;69.01;100048.09;105838;1257;73715;-83
2023/03/06 03:00:53;;;;;;;26.20;15.20;;;;;;;-1.69;69.25;100049.00;106075;1255;61669;-83
2023/03/06 03:03:22;;;;;;;28.70;16.10;;;;;;;-1.71;69.40;100048.55;105889;1251;61519;-83
2023/03/06 03:05:49;;;;;;;29.90;18.80;;;;;;;-1.76;69.27;100047.43;105919;1251;73506;-85
2023/03/06 03:08:29;;;;;;;50.50;28.50;;;;;;;-1.81;69.71;100042.38;106050;1251;64793;-82
2023/03/06 03:11:00;;;;;;;15.70;9.00;;;;;;;-1.81;69.87;100039.48;106102;1251;73711;-84
2023/03/06 03:13:31;;;;;;;15.00;6.70;;;;;;;-1.78;70.36;100036.84;106865;1251;59740;-82
2023/03/06 03:15:58;;;;;;;43.80;26.70;;;;;;;-1.70;70.78;100036.85;109643;1251;60649;-83
2023/03/06 03:18:25;;;;;;;12.90;8.20;;;;;;;-1.59;70.50;100036.83;108993;1251;72862;-83
2023/03/06 03:20:53;;;;;;;28.70;16.60;;;;;;;-1.51;70.16;100030.83;107617;1251;65193;-84
2023/03/06 03:23:20;;;;;;;13.80;9.10;;;;;;;-1.45;69.93;100029.70;107545;1251;72469;-82
2023/03/06 03:25:48;;;;;;;11.90;7.90;;;;;;;-1.40;69.58;100028.21;106458;1256;60504;-82
2023/03/06 03:28:15;;;;;;;14.50;8.80;;;;;;;-1.34;69.38;100027.23;107633;1252;60116;-81
2023/03/06 03:30:43;;;;;;;13.40;9.60;;;;;;;-1.30;69.04;100028.69;106480;1251;73986;-82
2023/03/06 03:33:11;;;;;;;9.80;7.70;;;;;;;-1.26;68.95;100030.65;106096;1256;64220;-83
2023/03/06 03:35:44;;;;;;;18.20;10.90;;;;;;;-1.22;68.55;100032.30;106128;1251;73679;-86
2023/03/06 03:38:12;;;;;;;12.90;8.60;;;;;;;-1.20;68.69;100031.75;106027;1257;61322;-84
2023/03/06 03:40:39;;;;;;;13.20;8.20;;;;;;;-1.21;68.52;100030.90;106175;1251;59781;-83
2023/03/06 03:43:07;;;;;;;10.60;7.10;;;;;;;-1.20;68.57;100033.63;106228;1256;74074;-83
2023/03/06 03:45:34;;;;;;;11.60;7.10;;;;;;;-1.19;68.04;100030.20;106220;1256;64918;-83
2023/03/06 03:48:02;;;;;;;11.20;7.50;;;;;;;-1.18;68.19;100032.55;106230;1254;73626;-84
2023/03/06 03:50:29;;;;;;;8.40;6.40;;;;;;;-1.15;68.00;100030.60;106205;1254;61229;-82
2023/03/06 03:52:58;;;;;;;10.60;6.70;;;;;;;-1.11;68.20;100031.20;106175;1251;61402;-82
2023/03/06 03:55:26;;;;;;;11.00;7.40;;;;;;;-1.08;68.11;100034.23;106340;1257;73950;-84
2023/03/06 03:57:54;;;;;;;11.10;7.40;;;;;;;-1.03;68.27;100030.16;107287;1255;64803;-83
2023/03/06 04:00:21;;;;;;;13.70;8.20;;;;;;;-0.98;67.89;100035.02;106305;1254;72362;-84
2023/03/06 04:02:56;;;;;;;10.50;7.00;;;;;;;-0.97;67.49;100032.60;106049;1260;60260;-85
2023/03/06 04:05:29;;;;;;;9.20;6.70;;;;;;;-0.95;67.44;100034.11;106931;1251;61344;-82
2023/03/06 04:08:02;;;;;;;16.60;11.30;;;;;;;-0.94;67.68;100033.23;106572;1256;72878;-86
2023/03/06 04:10:33;;;;;;;13.50;8.50;;;;;;;-0.95;67.31;100033.95;106378;1255;63581;-85
2023/03/06 04:13:02;;;;;;;11.00;7.50;;;;;;;-0.97;67.20;100034.00;106069;1256;73954;-84
2023/03/06 04:15:32;;;;;;;12.80;9.50;;;;;;;-1.01;67.24;100031.51;106140;1257;60550;-85
2023/03/06 04:18:00;;;;;;;10.60;7.90;;;;;;;-1.02;67.32;100038.56;106038;1254;61296;-84
2023/03/06 04:20:28;;;;;;;12.20;8.60;;;;;;;-1.05;67.29;100044.12;106119;1256;75528;-83
2023/03/06 04:22:56;;;;;;;14.30;8.10;;;;;;;-1.09;67.20;100044.02;106246;1256;64831;-83
2023/03/06 04:25:24;;;;;;;13.50;9.30;;;;;;;-1.09;67.33;100049.00;106122;1256;73416;-84
2023/03/06 04:27:51;;;;;;;11.50;8.20;;;;;;;-1.10;67.33;100048.31;106048;1257;62893;-85
2023/03/06 04:30:18;;;;;;;17.60;9.80;;;;;;;-1.09;67.48;100047.98;105951;1251;60451;-86
2023/03/06 04:32:47;;;;;;;13.60;8.90;;;;;;;-1.06;67.68;100044.30;106186;1251;75130;-84
2023/03/06 04:35:14;;;;;;;9.20;8.10;;;;;;;-1.01;67.44;100044.88;107192;1251;64655;-83
2023/03/06 04:37:49;;;;;;;12.40;8.10;;;;;;;-0.95;67.45;100044.75;106198;1256;73552;-84
2023/03/06 04:40:27;;;;;;;11.30;7.40;;;;;;;-0.89;67.22;100042.21;106348;1256;60483;-82
2023/03/06 04:42:55;;;;;;;20.50;9.00;;;;;;;-0.83;67.26;100040.87;106288;1257;60507;-85
2023/03/06 04:45:23;;;;;;;19.20;9.50;;;;;;;-0.79;67.25;100039.59;106376;1251;74626;-83
2023/03/06 04:47:56;;;;;;;11.10;8.40;;;;;;;-0.75;67.30;100042.23;107320;1251;64492;-85
2023/03/06 04:50:24;;;;;;;14.20;8.00;;;;;;;-0.70;66.91;100044.20;107239;1257;71810;-84
2023/03/06 04:52:54;;;;;;;15.20;8.60;;;;;;;-0.65;66.63;100042.55;107000;1251;60430;-82
2023/03/06 04:55:22;;;;;;;15.50;8.90;;;;;;;-0.61;66.71;100045.86;107282;1255;60432;-84
2023/03/06 04:57:49;;;;;;;12.90;8.10;;;;;;;-0.57;66.71;100049.20;107387;1251;74862;-84
2023/03/06 05:00:19;;;;;;;15.40;9.00;;;;;;;-0.56;66.28;100045.23;106641;1251;64191;-85
2023/03/06 05:02:47;;;;;;;16.50;9.30;;;;;;;-0.56;66.44;100042.14;106651;1251;73678;-84
2023/03/06 05:05:14;;;;;;;13.30;9.00;;;;;;;-0.55;66.21;100044.72;106383;1255;60463;-87
2023/03/06 05:07:41;;;;;;;16.90;10.40;;;;;;;-0.54;66.23;100043.13;106526;1251;61210;-85
2023/03/06 05:10:11;;;;;;;22.60;9.90;;;;;;;-0.46;66.64;100048.43;106427;1251;74604;-86
2023/03/06 05:15:34;;;;;;;11.60;7.90;;;;;;;0.12;66.71;100048.52;103122;1291;600957;-84
2023/03/06 05:18:03;;;;;;;10.00;7.40;;;;;;;0.79;66.39;100050.63;105990;1254;60476;-86
2023/03/06 05:20:32;;;;;;;12.90;7.60;;;;;;;1.66;64.77;100051.22;106335;1253;61272;-86
2023/03/06 05:23:00;;;;;;;13.90;6.60;;;;;;;2.38;62.15;100042.25;106561;1254;73622;-87
2023/03/06 05:25:31;;;;;;;14.50;8.40;;;;;;;2.78;59.55;100044.92;106395;1259;64877;-84
2023/03/06 05:28:00;;;;;;;12.70;6.90;;;;;;;2.88;58.07;100055.42;106276;1254;835566;-84
2023/03/06 05:30:30;;;;;;;10.30;7.30;;;;;;;2.87;57.41;100062.19;106553;1256;60678;-84
2023/03/06 05:33:02;;;;;;;14.20;8.50;;;;;;;2.85;57.08;100073.33;106885;1253;60117;-86
2023/03/06 05:35:39;;;;;;;15.80;10.30;;;;;;;2.81;56.97;100085.90;107242;1253;72970;-85
2023/03/06 05:38:12;;;;;;;14.50;9.60;;;;;;;2.75;56.91;100091.80;106968;1255;64276;-86
2023/03/06 05:40:41;;;;;;;16.50;10.30;;;;;;;2.65;56.88;100097.00;106548;1253;71671;-84
2023/03/06 05:43:10;;;;;;;15.90;9.70;;;;;;;2.54;57.21;100111.02;106638;1253;60215;-88
2023/03/06 05:45:39;;;;;;;19.00;10.70;;;;;;;2.44;57.64;100116.90;107091;1253;59656;-85
2023/03/06 05:48:09;;;;;;;23.30;12.70;;;;;;;2.37;57.93;100116.61;107104;1252;73628;-84
2023/03/06 05:50:37;;;;;;;28.50;15.00;;;;;;;2.32;58.12;100126.26;106864;1252;65164;-84
2023/03/06 05:53:06;;;;;;;23.00;13.70;;;;;;;2.26;58.32;100130.27;106865;1253;73568;-83
2023/03/06 05:55:36;;;;;;;25.10;14.80;;;;;;;2.19;58.38;100131.71;106432;1253;59819;-85
2023/03/06 05:58:04;;;;;;;23.00;13.70;;;;;;;2.15;58.72;100134.62;106717;1256;61275;-85
2023/03/06 06:00:34;;;;;;;21.60;12.80;;;;;;;2.10;58.98;100134.42;106427;1252;72976;-87
2023/03/06 06:03:05;;;;;;;23.10;12.50;;;;;;;2.05;59.23;100133.89;106349;1254;64554;-86
2023/03/06 06:05:38;;;;;;;20.20;11.50;;;;;;;2.04;59.64;100138.23;106265;1252;73744;-87
2023/03/06 06:08:08;;;;;;;19.70;9.60;;;;;;;2.04;59.59;100140.98;106445;1256;59716;-85
2023/03/06 06:10:38;;;;;;;16.30;10.80;;;;;;;2.02;59.65;100142.09;107066;1253;59558;-87
2023/03/06 06:13:12;;;;;;;18.20;9.30;;;;;;;2.00;59.91;100143.20;107461;1256;74016;-85
2023/03/06 06:15:56;;;;;;;15.60;8.40;;;;;;;2.02;59.83;100145.73;106886;1254;64178;-89
2023/03/06 06:18:26;;;;;;;12.40;7.40;;;;;;;2.03;59.94;100147.23;107441;1254;74124;-85
2023/03/06 06:20:58;;;;;;;18.20;8.30;;;;;;;2.11;60.13;100146.84;107704;1255;59628;-87
2023/03/06 06:23:28;;;;;;;9.70;7.50;;;;;;;2.20;60.12;100152.04;108103;1253;61330;-89
2023/03/06 06:26:01;;;;;;;12.90;7.70;;;;;;;2.30;59.76;100155.15;108532;1251;73102;-88
2023/03/06 06:28:32;;;;;;;9.90;6.60;;;;;;;2.39;59.54;100157.61;109691;1252;63828;-86
2023/03/06 06:31:11;;;;;;;14.40;7.40;;;;;;;2.46;59.64;100155.63;108544;1252;72665;-86
2023/03/06 06:33:42;;;;;;;11.40;7.20;;;;;;;2.55;58.94;100154.84;107448;1253;60600;-87
2023/03/06 06:36:15;;;;;;;9.50;6.60;;;;;;;2.55;58.67;100155.37;106847;1253;61357;-85
2023/03/06 06:38:45;;;;;;;13.50;8.40;;;;;;;2.53;58.53;100155.61;106528;1253;74251;-85
2023/03/06 06:41:14;;;;;;;14.30;8.90;;;;;;;2.52;58.91;100152.88;106381;1252;64687;-86
2023/03/06 06:44:06;;;;;;;8.60;6.70;;;;;;;2.54;58.90;100159.53;106435;1256;73831;-85
2023/03/06 06:46:36;;;;;;;9.00;7.60;;;;;;;2.59;58.97;100160.20;106384;1253;61827;-86
2023/03/06 06:49:26;;;;;;;10.30;7.10;;;;;;;2.67;58.98;100155.08;106410;1251;60310;-86
2023/03/06 06:51:55;;;;;;;13.30;7.80;;;;;;;2.71;58.49;100158.39;106175;1251;74002;-88
2023/03/06 06:54:24;;;;;;;10.10;7.40;;;;;;;2.76;58.63;100158.76;106277;1254;65618;-86
2023/03/06 06:56:53;;;;;;;11.70;6.60;;;;;;;2.84;58.27;100158.10;107101;1256;73617;-88
2023/03/06 06:59:22;;;;;;;14.60;8.00;;;;;;;2.96;57.96;100158.58;106729;1253;59868;-86
2023/03/06 07:13:50;;;;;;;12.90;6.50;;;;;;;3.56;55.41;100152.35;104460;1290;612682;-86
2023/03/06 07:16:19;;;;;;;13.30;7.10;;;;;;;3.64;54.69;100149.29;107052;1264;59371;-86
2023/03/06 07:18:46;;;;;;;13.70;5.60;;;;;;;3.72;54.13;100151.73;106876;1263;59642;-87
2023/03/06 07:21:13;;;;;;;11.40;6.90;;;;;;;3.78;53.60;100151.15;106814;1265;72224;-86
2023/03/06 07:23:41;;;;;;;10.60;6.70;;;;;;;3.84;53.62;100151.45;109087;1256;63786;-85
2023/03/06 07:26:11;;;;;;;7.60;5.50;;;;;;;3.90;53.79;100148.79;108568;1254;699361;-85
2023/03/06 07:28:40;;;;;;;7.70;6.10;;;;;;;3.96;53.44;100144.72;109231;1254;59300;-86
2023/03/06 07:31:26;;;;;;;10.00;5.90;;;;;;;4.02;53.40;100142.92;108768;1254;60064;-87
2023/03/06 07:33:54;;;;;;;15.50;6.10;;;;;;;4.06;52.95;100144.82;108875;1258;72355;-86
2023/03/06 07:36:24;;;;;;;11.90;7.10;;;;;;;4.10;52.48;100145.19;108144;1259;64625;-85
2023/03/06 07:38:55;;;;;;;7.90;4.80;;;;;;;4.14;52.03;100147.96;107740;1251;72264;-87
2023/03/06 07:41:23;;;;;;;10.90;6.00;;;;;;;4.21;51.76;100152.20;107750;1251;60122;-87
2023/03/06 07:43:51;;;;;;;7.40;5.80;;;;;;;4.30;51.77;100154.91;107921;1251;61519;-86
2023/03/06 07:46:18;;;;;;;9.40;5.20;;;;;;;4.45;51.55;100159.17;108769;1256;72863;-87
2023/03/06 07:48:49;;;;;;;11.30;5.80;;;;;;;4.59;51.03;100157.70;107243;1252;63696;-86
2023/03/06 07:51:18;;;;;;;8.40;6.00;;;;;;;4.70;50.62;100156.36;107063;1250;73724;-87
2023/03/06 10:52:06;;;;;;;10.20;5.50;;;;;;;6.33;43.60;100177.48;104393;1282;615054;-85
2023/03/06 10:54:40;;;;;;;7.80;4.80;;;;;;;6.16;44.12;100172.42;106882;1264;128156;-86
2023/03/06 10:57:29;;;;;;;9.20;4.30;;;;;;;6.09;44.52;100172.08;108385;1266;61704;-84
2023/03/06 11:00:07;;;;;;;5.60;4.90;;;;;;;6.07;44.76;100163.80;107617;1260;73288;-86
2023/03/06 11:02:38;;;;;;;7.40;3.80;;;;;;;6.10;44.96;100160.40;106737;1261;64636;-87
2023/03/06 11:05:18;;;;;;;11.60;6.40;;;;;;;6.08;45.09;100159.61;106712;1260;73971;-85
2023/03/06 11:07:55;;;;;;;10.20;6.10;;;;;;;6.08;45.51;100161.53;106148;1262;60442;-86
2023/03/06 11:10:23;;;;;;;11.60;6.50;;;;;;;6.13;45.41;100166.45;106104;1261;61436;-85
2023/03/06 11:17:27;;;;;;;9.00;5.30;;;;;;;6.21;45.78;100157.76;105467;1267;65156;-87
2023/03/06 11:20:13;;;;;;;7.40;5.30;;;;;;;6.26;45.78;100164.61;106145;1264;72696;-88
2023/03/06 11:22:49;;;;;;;12.10;5.40;;;;;;;6.30;45.79;100163.89;105612;1262;60550;-87
2023/03/06 11:25:17;;;;;;;7.70;4.30;;;;;;;6.32;46.04;100166.05;105837;1262;61196;-83
2023/03/06 11:27:46;;;;;;;7.60;4.60;;;;;;;6.32;45.92;100164.50;106068;1267;72905;-85
2023/03/06 11:30:25;;;;;;;7.80;4.60;;;;;;;6.35;46.05;100164.70;106484;1264;64888;-87
2023/03/06 11:33:00;;;;;;;7.20;4.90;;;;;;;6.41;45.86;100168.20;106523;1256;71504;-86
2023/03/06 11:35:34;;;;;;;8.50;5.40;;;;;;;6.41;45.77;100169.27;105585;1257;60649;-87
2023/03/06 11:38:13;;;;;;;8.90;6.00;;;;;;;6.38;45.49;100172.19;106751;1257;60201;-88
2023/03/06 11:40:44;;;;;;;11.20;5.80;;;;;;;6.37;45.44;100173.30;107399;1254;72770;-86
2023/03/06 11:43:47;;;;;;;7.20;4.40;;;;;;;6.40;45.56;100174.50;106618;1260;64712;-86
2023/03/06 11:46:24;;;;;;;5.30;3.80;;;;;;;6.45;45.40;100174.27;106182;1254;73651;-86
2023/03/06 11:48:53;;;;;;;7.10;4.90;;;;;;;6.47;45.34;100170.85;105942;1254;60955;-86
2023/03/06 11:51:24;;;;;;;9.00;5.00;;;;;;;6.48;45.50;100174.29;105939;1254;61344;-86
2023/03/06 11:53:51;;;;;;;12.10;5.40;;;;;;;6.50;45.70;100170.54;105987;1257;72632;-88
2023/03/06 11:56:18;;;;;;;10.30;5.30;;;;;;;6.54;45.76;100170.68;105694;1254;63868;-88
2023/03/06 11:59:01;;;;;;;9.90;5.50;;;;;;;6.55;45.96;100171.88;105884;1257;72618;-87
2023/03/06 12:01:32;;;;;;;18.00;6.90;;;;;;;6.60;46.11;100174.04;106009;1257;60549;-88
2023/03/06 12:04:24;;;;;;;13.60;7.20;;;;;;;6.64;46.41;100180.95;106275;1254;60436;-87
2023/03/06 12:07:15;;;;;;;12.80;6.20;;;;;;;6.68;46.25;100183.71;106361;1254;72943;-89
2023/03/06 12:10:25;;;;;;;9.90;6.50;;;;;;;6.69;46.41;100187.65;106131;1254;66995;-86
2023/03/06 12:13:24;;;;;;;7.60;5.70;;;;;;;6.71;46.53;100188.45;106660;1254;73667;-88
2023/03/06 12:15:56;;;;;;;12.60;6.20;;;;;;;6.74;46.50;100190.20;106188;1257;60766;-86
2023/03/06 12:18:55;;;;;;;9.90;6.20;;;;;;;6.75;46.48;100191.02;106233;1257;60279;-87
2023/03/06 12:21:57;;;;;;;8.00;5.50;;;;;;;6.75;46.32;100186.62;106190;1257;74026;-86
2023/03/06 12:24:49;;;;;;;9.50;5.00;;;;;;;6.71;46.70;100191.88;106308;1258;65351;-88
2023/03/06 12:27:33;;;;;;;9.20;5.20;;;;;;;6.69;46.73;100202.42;105713;1254;72667;-88
2023/03/06 12:30:05;;;;;;;10.30;5.00;;;;;;;6.66;46.60;100194.91;107030;1254;59998;-86
2023/03/06 12:32:38;;;;;;;7.20;4.90;;;;;;;6.67;46.83;100199.93;106652;1254;61505;-88
2023/03/06 12:35:26;;;;;;;9.70;4.50;;;;;;;6.71;46.88;100193.30;105917;1254;74185;-88
2023/03/06 12:38:08;;;;;;;6.70;4.80;;;;;;;6.70;46.71;100196.62;106152;1255;63821;-87
2023/03/06 12:40:50;;;;;;;10.20;5.80;;;;;;;6.66;46.74;100202.73;108093;1254;73569;-86
2023/03/06 12:43:42;;;;;;;8.70;4.50;;;;;;;6.66;46.66;100200.86;109510;1253;59666;-85
2023/03/06 12:46:30;;;;;;;8.70;4.90;;;;;;;6.69;46.81;100197.91;109545;1254;59990;-87
2023/03/06 12:49:30;;;;;;;5.00;3.50;;;;;;;6.74;46.90;100199.54;109079;1258;73047;-87
2023/03/06 12:52:00;;;;;;;7.30;5.10;;;;;;;6.75;46.63;100200.16;109111;1258;63716;-86
2023/03/06 12:54:28;;;;;;;11.50;4.50;;;;;;;6.74;46.46;100200.95;109139;1258;72685;-89
2023/03/06 12:56:55;;;;;;;6.80;4.60;;;;;;;6.69;46.70;100203.80;109087;1258;59742;-87
2023/03/06 12:59:43;;;;;;;17.50;6.00;;;;;;;6.65;46.82;100203.30;109013;1258;60193;-86
2023/03/06 13:02:44;;;;;;;7.40;4.80;;;;;;;6.59;47.09;100205.66;109050;1258;72976;-86
2023/03/06 13:05:31;;;;;;;12.10;6.50;;;;;;;6.57;47.43;100204.39;109155;1258;63971;-85
2023/03/06 13:08:21;;;;;;;6.10;5.00;;;;;;;6.56;47.40;100206.17;108868;1258;72248;-86
2023/03/06 13:11:24;;;;;;;8.00;5.00;;;;;;;6.54;47.03;100209.27;109067;1258;59565;-85
2023/03/06 13:13:53;;;;;;;11.10;4.90;;;;;;;6.50;46.67;100211.53;108051;1258;60385;-85
2023/03/06 13:16:32;;;;;;;8.00;4.90;;;;;;;6.47;46.56;100212.20;107299;1259;72858;-86
2023/03/06 13:19:10;;;;;;;8.10;5.50;;;;;;;6.45;46.24;100217.67;106381;1259;64513;-85
2023/03/06 13:22:06;;;;;;;9.00;5.60;;;;;;;6.44;46.68;100219.11;106903;1254;72469;-86
2023/03/06 13:24:36;;;;;;;12.70;6.40;;;;;;;6.44;46.88;100228.98;106672;1253;59701;-87
2023/03/06 13:27:06;;;;;;;7.70;5.80;;;;;;;6.42;46.99;100230.30;106988;1254;62175;-87
2023/03/06 13:29:36;;;;;;;9.80;5.60;;;;;;;6.38;47.18;100233.30;106904;1254;72473;-84
2023/03/06 13:32:03;;;;;;;10.00;5.70;;;;;;;6.30;47.00;100237.86;109041;1254;64629;-84
2023/03/06 13:34:36;;;;;;;11.00;6.20;;;;;;;6.19;47.10;100239.23;107362;1257;74926;-88
2023/03/06 13:37:18;;;;;;;8.70;5.30;;;;;;;6.08;46.85;100243.93;106025;1259;59820;-87
2023/03/06 13:39:55;;;;;;;8.10;5.40;;;;;;;6.01;47.01;100246.52;105747;1254;61108;-87
2023/03/06 13:42:35;;;;;;;8.20;6.10;;;;;;;5.97;47.20;100252.76;105853;1260;73226;-86
2023/03/06 13:45:15;;;;;;;8.70;5.20;;;;;;;5.97;47.62;100250.02;105781;1254;64312;-86
2023/03/06 13:47:54;;;;;;;9.60;5.80;;;;;;;5.98;47.59;100255.85;106372;1254;73901;-86
2023/03/06 13:50:42;;;;;;;12.80;7.50;;;;;;;5.97;47.66;100259.70;106032;1255;60817;-86
2023/03/06 13:53:30;;;;;;;12.70;7.10;;;;;;;5.97;47.54;100261.48;106579;1254;61246;-85
2023/03/06 13:56:37;;;;;;;11.10;6.70;;;;;;;5.90;46.99;100260.39;105917;1260;73308;-87
2023/03/06 13:59:22;;;;;;;8.80;5.70;;;;;;;5.84;47.28;100263.40;106578;1260;62646;-87
2023/03/06 14:01:56;;;;;;;9.50;5.60;;;;;;;5.79;46.99;100265.20;106019;1255;72706;-87
2023/03/06 14:04:35;;;;;;;8.90;5.00;;;;;;;5.70;47.08;100264.74;106118;1254;60837;-86
2023/03/06 14:07:05;;;;;;;10.70;5.70;;;;;;;5.62;46.90;100266.30;105835;1254;61347;-88
2023/03/06 14:09:40;;;;;;;6.70;5.30;;;;;;;5.57;47.13;100269.48;107100;1254;74055;-85
2023/03/06 14:12:12;;;;;;;9.10;5.10;;;;;;;5.53;47.35;100268.84;106631;1254;63138;-85
2023/03/06 14:14:47;;;;;;;9.00;5.90;;;;;;;5.49;47.43;100268.49;106018;1259;73518;-85
2023/03/06 14:17:19;;;;;;;7.20;5.00;;;;;;;5.46;47.32;100272.40;106208;1253;60627;-86
2023/03/06 14:19:46;;;;;;;6.80;4.60;;;;;;;5.43;47.20;100277.23;106258;1254;61366;-86
2023/03/06 14:22:21;;;;;;;10.20;5.50;;;;;;;5.39;47.19;100275.48;109306;1254;73022;-85
2023/03/06 14:24:58;;;;;;;8.20;5.70;;;;;;;5.37;47.40;100277.66;109305;1254;63757;-86
2023/03/06 14:27:42;;;;;;;9.20;5.60;;;;;;;5.37;47.47;100278.89;109379;1254;72515;-85
2023/03/06 14:30:12;;;;;;;8.70;5.90;;;;;;;5.34;47.67;100281.80;109575;1253;59605;-88
2023/03/06 14:32:42;;;;;;;9.10;5.60;;;;;;;5.32;47.77;100285.16;109605;1254;60308;-85
2023/03/06 14:35:27;;;;;;;12.50;7.00;;;;;;;5.32;47.92;100288.63;109402;1254;73096;-86
2023/03/06 14:37:59;;;;;;;11.70;5.90;;;;;;;5.33;47.83;100296.05;109576;1254;63764;-87
2023/03/06 14:40:29;;;;;;;11.20;7.00;;;;;;;5.33;47.75;100299.68;109315;1254;72664;-87
2023/03/06 14:43:11;;;;;;;13.70;7.10;;;;;;;5.36;48.19;100298.52;109535;1254;59608;-88
2023/03/06 14:45:59;;;;;;;16.00;9.00;;;;;;;5.38;48.39;100305.51;109558;1254;60064;-87
2023/03/06 14:48:41;;;;;;;12.30;7.50;;;;;;;5.39;48.41;100311.57;109578;1254;72992;-86
2023/03/06 14:51:18;;;;;;;16.00;8.50;;;;;;;5.37;48.49;100308.67;109622;1253;63617;-84
2023/03/06 14:53:49;;;;;;;21.70;9.50;;;;;;;5.36;48.51;100308.38;109581;1254;72666;-86
2023/03/06 14:56:18;;;;;;;15.60;9.30;;;;;;;5.36;48.56;100307.17;109458;1254;59561;-85